SBOSBO LIN / LIML
Speedbird OnlineSpeedbird Online LIN / LIML

Milano Linate Airport
13:34 9.5°C

Location Milan, Italy
Latitude: 45.445099
Longitude: 9.27674
Web Airport Website | Wikipedia
Altitude 108 Meter / 353 Feet
Distance 953 KM / 592 Miles
from London.
Time Zone UTC +1 hours (Europe/Rome)
Codes IATA: LIN
ICAO: LIML
Currency £1 equals EUR 1.14
Runways
RunwayLength (m)Surface
17601Tarmac
182440Asphalt
35601Tarmac
362440Asphalt
Radio
TypeDescriptionFrequency
APPMILANO APP132.7
ATISATIS135.55
DEPMILANO DEP126.75
GNDGND121.8
TWRTWR118.1
Live ATC
METAR LIML 311150Z 25005KT 200V290 CAVOK 08/02 Q1023 NOSIG
TAF TAF LIML 311100Z 3112/0112 25006KT CAVOK TEMPO 3122/0107 4000 BR
Weather As Of 31 Jan 2023 13:34
Description Clear sky
Wind 9 km/h from South-West (230°)
Cloud Cover 0%
Precipitation Rain: none, Snow: none
Sunrise 07:45
Sunset 17:26
Lounges British Airways Lounge (Open), Main Departures Area
Rotations During the last 90 days there were
372 flights from LHR
386 flights to LHR



Support Speedbird Online

© 2017-2023 Speedbird Online